메인 페이지
METAR-TAF:

METAR-TAF

공항 :

베이루트, 레바논

위도: 33-49N, 경도: 035-29E, 고도: 29m

현재 날씨관측

예보는 34분 전, 19:00시(UTC)에 발표되었습니다.
남동4kt풍과 남남동풍을 오가는
온도 26°C
습도 28%
기압 1013 hPa
시정 10km 이상
1500m 미만 상공 구름 및 적란운 없음

METAR: OLBA 251900Z 13004KT 100V160 CAVOK 26/06 Q1013 NOSIG

시각: 21:34 (19:34 UTC)

예보

예보는 3 시간 34분 전, 16:00시(UTC)에 발표되었습니다.
예보 대상 시간: 25일 18시부터 26일 24시까지 (UTC)
동북동8kt
시정 10km 이상
1500m 미만 상공 구름 및 적란운 없음
전환 중
25일 22시부터 26일 24시까지 (UTC)
남동4kt
전환 중
26일 06시부터 26일 09시까지 (UTC)
서남서10kt
시정: 8000m
전환 중
26일 18시부터 26일 20시까지 (UTC)
남남동4kt
시정 10km 이상
1500m 미만 상공 구름 및 적란운 없음

TAF: OLBA 251600Z 2518/2624 07008KT CAVOK BECMG 2522/2624 14004KT BECMG 2606/2609 24010KT 8000 NSC BECMG 2618/2620 15004KT CAVOK

4,000개 이상의 공항 관측 자료 및 예보 (METAR 및 TAF 보고).

지도상에서 검색 가능한 기상관측소가 노란 점과 빨간 점으로 표시되어 있습니다.

기상관측소 명을 보려면 표시 위로 마우스를 이동하세요.

날씨 관측과 예보를 보려면 클릭하세요.

지도 변경 : 확대하려면 엑스 표시가 있는 녹색 버튼, 축소하려면 빼기 표시가 있는 녹색 버튼, 다음 페이지의 지도를 보려면 녹색 화살표를 클릭하세요.


METAR-TAF: